sensor_id;sensor_type;location;lat;lon;timestamp;temperature;humidity
61153;DHT22;47030;50.732;4.286;2022-08-21T00:01:26;15.30;95.70
61153;DHT22;47030;50.732;4.286;2022-08-21T00:03:54;15.30;95.70
61153;DHT22;47030;50.732;4.286;2022-08-21T00:06:20;15.40;95.60
61153;DHT22;47030;50.732;4.286;2022-08-21T00:08:46;15.30;95.60
61153;DHT22;47030;50.732;4.286;2022-08-21T00:11:12;15.40;95.60
61153;DHT22;47030;50.732;4.286;2022-08-21T00:13:38;15.30;95.80
61153;DHT22;47030;50.732;4.286;2022-08-21T00:16:04;15.30;95.60
61153;DHT22;47030;50.732;4.286;2022-08-21T00:18:30;15.40;95.60
61153;DHT22;47030;50.732;4.286;2022-08-21T00:20:56;15.50;95.20
61153;DHT22;47030;50.732;4.286;2022-08-21T00:23:22;15.60;95.00
61153;DHT22;47030;50.732;4.286;2022-08-21T00:25:48;15.70;94.90
61153;DHT22;47030;50.732;4.286;2022-08-21T00:28:14;15.80;94.50
61153;DHT22;47030;50.732;4.286;2022-08-21T00:30:41;16.10;93.90
61153;DHT22;47030;50.732;4.286;2022-08-21T00:33:09;16.20;93.50
61153;DHT22;47030;50.732;4.286;2022-08-21T00:35:37;16.30;93.30
61153;DHT22;47030;50.732;4.286;2022-08-21T00:38:05;16.30;93.20
61153;DHT22;47030;50.732;4.286;2022-08-21T00:40:39;16.50;92.80
61153;DHT22;47030;50.732;4.286;2022-08-21T00:43:07;16.50;92.60
61153;DHT22;47030;50.732;4.286;2022-08-21T00:45:34;16.50;92.60
61153;DHT22;47030;50.732;4.286;2022-08-21T00:48:00;16.60;92.50
61153;DHT22;47030;50.732;4.286;2022-08-21T00:50:32;16.60;92.30
61153;DHT22;47030;50.732;4.286;2022-08-21T00:52:59;16.70;92.10
61153;DHT22;47030;50.732;4.286;2022-08-21T00:55:26;16.70;92.20
61153;DHT22;47030;50.732;4.286;2022-08-21T00:57:56;16.60;92.30
61153;DHT22;47030;50.732;4.286;2022-08-21T01:00:28;16.60;92.40
61153;DHT22;47030;50.732;4.286;2022-08-21T01:02:56;16.40;92.30
61153;DHT22;47030;50.732;4.286;2022-08-21T01:05:24;16.40;92.40
61153;DHT22;47030;50.732;4.286;2022-08-21T01:07:51;16.20;92.50
61153;DHT22;47030;50.732;4.286;2022-08-21T01:10:19;16.00;92.80
61153;DHT22;47030;50.732;4.286;2022-08-21T01:12:46;15.90;92.90
61153;DHT22;47030;50.732;4.286;2022-08-21T01:15:14;15.70;93.20
61153;DHT22;47030;50.732;4.286;2022-08-21T01:17:41;15.50;93.60
61153;DHT22;47030;50.732;4.286;2022-08-21T01:20:09;15.40;94.00
61153;DHT22;47030;50.732;4.286;2022-08-21T01:22:36;15.30;94.40
61153;DHT22;47030;50.732;4.286;2022-08-21T01:25:05;15.20;94.80
61153;DHT22;47030;50.732;4.286;2022-08-21T01:27:31;15.20;95.00
61153;DHT22;47030;50.732;4.286;2022-08-21T01:30:04;15.10;95.20
61153;DHT22;47030;50.732;4.286;2022-08-21T01:32:33;15.00;95.30
61153;DHT22;47030;50.732;4.286;2022-08-21T01:34:59;14.90;95.60
61153;DHT22;47030;50.732;4.286;2022-08-21T01:37:25;14.80;95.80
61153;DHT22;47030;50.732;4.286;2022-08-21T01:39:51;14.80;95.90
61153;DHT22;47030;50.732;4.286;2022-08-21T01:42:17;14.70;96.10
61153;DHT22;47030;50.732;4.286;2022-08-21T01:44:43;14.70;96.30
61153;DHT22;47030;50.732;4.286;2022-08-21T01:47:11;14.70;96.50
61153;DHT22;47030;50.732;4.286;2022-08-21T01:49:38;14.60;96.60
61153;DHT22;47030;50.732;4.286;2022-08-21T01:52:05;14.50;96.70
61153;DHT22;47030;50.732;4.286;2022-08-21T01:54:31;14.40;96.80
61153;DHT22;47030;50.732;4.286;2022-08-21T01:56:58;14.40;96.90
61153;DHT22;47030;50.732;4.286;2022-08-21T01:59:24;14.30;96.90
61153;DHT22;47030;50.732;4.286;2022-08-21T02:01:50;14.30;97.10
61153;DHT22;47030;50.732;4.286;2022-08-21T02:04:17;14.20;97.20
61153;DHT22;47030;50.732;4.286;2022-08-21T02:06:43;14.20;97.40
61153;DHT22;47030;50.732;4.286;2022-08-21T02:09:10;14.10;97.50
61153;DHT22;47030;50.732;4.286;2022-08-21T02:11:37;14.10;97.90
61153;DHT22;47030;50.732;4.286;2022-08-21T02:14:15;14.10;97.90
61153;DHT22;47030;50.732;4.286;2022-08-21T02:16:42;14.00;97.90
61153;DHT22;47030;50.732;4.286;2022-08-21T02:19:10;14.00;98.10
61153;DHT22;47030;50.732;4.286;2022-08-21T02:21:35;14.00;98.20
61153;DHT22;47030;50.732;4.286;2022-08-21T02:24:01;13.90;98.30
61153;DHT22;47030;50.732;4.286;2022-08-21T02:26:27;13.90;98.30
61153;DHT22;47030;50.732;4.286;2022-08-21T02:28:53;13.90;98.30
61153;DHT22;47030;50.732;4.286;2022-08-21T02:31:19;14.00;98.40
61153;DHT22;47030;50.732;4.286;2022-08-21T02:33:45;14.00;98.40
61153;DHT22;47030;50.732;4.286;2022-08-21T02:36:11;14.00;98.10
61153;DHT22;47030;50.732;4.286;2022-08-21T02:38:39;14.00;97.80
61153;DHT22;47030;50.732;4.286;2022-08-21T02:41:15;14.00;97.80
61153;DHT22;47030;50.732;4.286;2022-08-21T02:43:41;14.00;97.90
61153;DHT22;47030;50.732;4.286;2022-08-21T02:46:09;14.00;97.70
61153;DHT22;47030;50.732;4.286;2022-08-21T02:48:35;13.90;97.80
61153;DHT22;47030;50.732;4.286;2022-08-21T02:51:08;13.90;97.80
61153;DHT22;47030;50.732;4.286;2022-08-21T02:53:35;13.90;97.90
61153;DHT22;47030;50.732;4.286;2022-08-21T02:56:04;13.90;98.00
61153;DHT22;47030;50.732;4.286;2022-08-21T02:58:33;13.90;98.20
61153;DHT22;47030;50.732;4.286;2022-08-21T03:01:00;13.90;98.00
61153;DHT22;47030;50.732;4.286;2022-08-21T03:03:26;14.00;98.00
61153;DHT22;47030;50.732;4.286;2022-08-21T03:05:53;14.00;98.00
61153;DHT22;47030;50.732;4.286;2022-08-21T03:08:19;14.00;98.00
61153;DHT22;47030;50.732;4.286;2022-08-21T03:10:50;14.00;98.00
61153;DHT22;47030;50.732;4.286;2022-08-21T03:13:17;14.10;97.80
61153;DHT22;47030;50.732;4.286;2022-08-21T03:15:43;14.00;97.60
61153;DHT22;47030;50.732;4.286;2022-08-21T03:18:10;14.00;97.40
61153;DHT22;47030;50.732;4.286;2022-08-21T03:20:37;13.90;97.70
61153;DHT22;47030;50.732;4.286;2022-08-21T03:23:04;13.80;97.90
61153;DHT22;47030;50.732;4.286;2022-08-21T03:25:31;13.80;98.10
61153;DHT22;47030;50.732;4.286;2022-08-21T03:28:04;13.80;98.30
61153;DHT22;47030;50.732;4.286;2022-08-21T03:30:31;13.80;98.30
61153;DHT22;47030;50.732;4.286;2022-08-21T03:33:00;13.70;98.30
61153;DHT22;47030;50.732;4.286;2022-08-21T03:35:27;13.80;98.00
61153;DHT22;47030;50.732;4.286;2022-08-21T03:37:53;13.70;97.90
61153;DHT22;47030;50.732;4.286;2022-08-21T03:40:20;13.60;97.80
61153;DHT22;47030;50.732;4.286;2022-08-21T03:42:46;13.40;98.00
61153;DHT22;47030;50.732;4.286;2022-08-21T03:45:14;13.30;98.40
61153;DHT22;47030;50.732;4.286;2022-08-21T03:47:54;13.20;98.80
61153;DHT22;47030;50.732;4.286;2022-08-21T03:50:22;13.30;99.00
61153;DHT22;47030;50.732;4.286;2022-08-21T03:52:48;13.20;99.10
61153;DHT22;47030;50.732;4.286;2022-08-21T03:55:14;13.20;99.00
61153;DHT22;47030;50.732;4.286;2022-08-21T03:57:40;13.20;99.10
61153;DHT22;47030;50.732;4.286;2022-08-21T04:00:07;13.10;99.10
61153;DHT22;47030;50.732;4.286;2022-08-21T04:02:38;13.10;99.50
61153;DHT22;47030;50.732;4.286;2022-08-21T04:05:05;13.20;99.50
61153;DHT22;47030;50.732;4.286;2022-08-21T04:07:31;13.20;99.40
61153;DHT22;47030;50.732;4.286;2022-08-21T04:09:57;13.20;99.10
61153;DHT22;47030;50.732;4.286;2022-08-21T04:12:22;13.20;98.90
61153;DHT22;47030;50.732;4.286;2022-08-21T04:14:49;13.20;98.90
61153;DHT22;47030;50.732;4.286;2022-08-21T04:17:17;13.20;98.80
61153;DHT22;47030;50.732;4.286;2022-08-21T04:19:43;13.30;98.70
61153;DHT22;47030;50.732;4.286;2022-08-21T04:22:09;13.20;98.60
61153;DHT22;47030;50.732;4.286;2022-08-21T04:24:35;13.30;98.40
61153;DHT22;47030;50.732;4.286;2022-08-21T04:27:01;13.30;98.60
61153;DHT22;47030;50.732;4.286;2022-08-21T04:29:26;13.30;98.50
61153;DHT22;47030;50.732;4.286;2022-08-21T04:31:52;13.30;98.50
61153;DHT22;47030;50.732;4.286;2022-08-21T04:34:18;13.30;98.20
61153;DHT22;47030;50.732;4.286;2022-08-21T04:36:44;13.30;98.40
61153;DHT22;47030;50.732;4.286;2022-08-21T04:39:10;13.30;98.40
61153;DHT22;47030;50.732;4.286;2022-08-21T04:41:36;13.30;98.40
61153;DHT22;47030;50.732;4.286;2022-08-21T04:44:03;13.20;98.60
61153;DHT22;47030;50.732;4.286;2022-08-21T04:46:29;13.20;98.70
61153;DHT22;47030;50.732;4.286;2022-08-21T04:48:55;13.20;98.90
61153;DHT22;47030;50.732;4.286;2022-08-21T04:51:25;13.10;99.10
61153;DHT22;47030;50.732;4.286;2022-08-21T04:54:12;13.20;99.10
61153;DHT22;47030;50.732;4.286;2022-08-21T04:56:45;13.30;99.00
61153;DHT22;47030;50.732;4.286;2022-08-21T04:59:28;13.30;99.10
61153;DHT22;47030;50.732;4.286;2022-08-21T05:01:56;13.40;99.20
61153;DHT22;47030;50.732;4.286;2022-08-21T05:04:26;13.40;99.00
61153;DHT22;47030;50.732;4.286;2022-08-21T05:06:57;13.50;98.90
61153;DHT22;47030;50.732;4.286;2022-08-21T05:09:25;13.50;98.80
61153;DHT22;47030;50.732;4.286;2022-08-21T05:11:52;13.60;98.70
61153;DHT22;47030;50.732;4.286;2022-08-21T05:14:19;13.70;98.80
61153;DHT22;47030;50.732;4.286;2022-08-21T05:16:45;13.70;98.60
61153;DHT22;47030;50.732;4.286;2022-08-21T05:19:12;13.90;98.30
61153;DHT22;47030;50.732;4.286;2022-08-21T05:21:41;14.00;97.90
61153;DHT22;47030;50.732;4.286;2022-08-21T05:24:08;14.10;97.70
61153;DHT22;47030;50.732;4.286;2022-08-21T05:26:34;14.20;97.80
61153;DHT22;47030;50.732;4.286;2022-08-21T05:28:59;14.40;97.80
61153;DHT22;47030;50.732;4.286;2022-08-21T05:31:25;14.50;97.70
61153;DHT22;47030;50.732;4.286;2022-08-21T05:33:51;14.70;97.50
61153;DHT22;47030;50.732;4.286;2022-08-21T05:36:18;15.10;97.10
61153;DHT22;47030;50.732;4.286;2022-08-21T05:38:44;16.30;95.50
61153;DHT22;47030;50.732;4.286;2022-08-21T05:41:10;17.80;92.20
61153;DHT22;47030;50.732;4.286;2022-08-21T05:43:35;19.40;88.10
61153;DHT22;47030;50.732;4.286;2022-08-21T05:46:05;20.80;81.80
61153;DHT22;47030;50.732;4.286;2022-08-21T05:48:32;22.00;76.50
61153;DHT22;47030;50.732;4.286;2022-08-21T05:50:58;22.80;73.20
61153;DHT22;47030;50.732;4.286;2022-08-21T05:53:24;23.50;70.50
61153;DHT22;47030;50.732;4.286;2022-08-21T05:55:51;24.60;66.60
61153;DHT22;47030;50.732;4.286;2022-08-21T05:58:19;26.00;62.90
61153;DHT22;47030;50.732;4.286;2022-08-21T06:00:47;27.20;58.50
61153;DHT22;47030;50.732;4.286;2022-08-21T06:03:16;28.10;55.40
61153;DHT22;47030;50.732;4.286;2022-08-21T06:05:42;28.90;52.70
61153;DHT22;47030;50.732;4.286;2022-08-21T06:08:08;29.30;51.20
61153;DHT22;47030;50.732;4.286;2022-08-21T06:10:34;29.40;50.80
61153;DHT22;47030;50.732;4.286;2022-08-21T06:13:00;29.70;49.50
61153;DHT22;47030;50.732;4.286;2022-08-21T06:15:26;30.00;48.50
61153;DHT22;47030;50.732;4.286;2022-08-21T06:17:52;29.50;49.00
61153;DHT22;47030;50.732;4.286;2022-08-21T06:20:18;29.10;49.80
61153;DHT22;47030;50.732;4.286;2022-08-21T06:22:44;28.20;51.60
61153;DHT22;47030;50.732;4.286;2022-08-21T06:25:10;27.30;54.00
61153;DHT22;47030;50.732;4.286;2022-08-21T06:27:36;27.70;54.90
61153;DHT22;47030;50.732;4.286;2022-08-21T06:30:03;28.60;52.70
61153;DHT22;47030;50.732;4.286;2022-08-21T06:32:30;28.50;51.90
61153;DHT22;47030;50.732;4.286;2022-08-21T06:34:56;27.90;53.70
61153;DHT22;47030;50.732;4.286;2022-08-21T06:37:22;27.60;53.80
61153;DHT22;47030;50.732;4.286;2022-08-21T06:39:48;27.00;54.70
61153;DHT22;47030;50.732;4.286;2022-08-21T06:42:15;26.40;57.20
61153;DHT22;47030;50.732;4.286;2022-08-21T06:44:42;25.80;57.10
61153;DHT22;47030;50.732;4.286;2022-08-21T06:47:07;25.80;56.90
61153;DHT22;47030;50.732;4.286;2022-08-21T06:49:33;25.70;57.90
61153;DHT22;47030;50.732;4.286;2022-08-21T06:52:00;25.90;58.50
61153;DHT22;47030;50.732;4.286;2022-08-21T06:54:26;27.70;54.40
61153;DHT22;47030;50.732;4.286;2022-08-21T06:56:51;29.80;49.80
61153;DHT22;47030;50.732;4.286;2022-08-21T06:59:18;30.00;48.90
61153;DHT22;47030;50.732;4.286;2022-08-21T07:01:44;30.30;48.30
61153;DHT22;47030;50.732;4.286;2022-08-21T07:04:10;30.50;47.90
61153;DHT22;47030;50.732;4.286;2022-08-21T07:06:36;31.10;47.00
61153;DHT22;47030;50.732;4.286;2022-08-21T07:09:02;31.60;46.50
61153;DHT22;47030;50.732;4.286;2022-08-21T07:11:29;32.60;44.40
61153;DHT22;47030;50.732;4.286;2022-08-21T07:13:55;32.60;44.20
61153;DHT22;47030;50.732;4.286;2022-08-21T07:16:22;33.60;43.00
61153;DHT22;47030;50.732;4.286;2022-08-21T07:18:48;35.60;40.90
61153;DHT22;47030;50.732;4.286;2022-08-21T07:21:15;37.30;38.70
61153;DHT22;47030;50.732;4.286;2022-08-21T07:23:44;38.30;36.40
61153;DHT22;47030;50.732;4.286;2022-08-21T07:26:11;38.80;36.20
61153;DHT22;47030;50.732;4.286;2022-08-21T07:28:37;39.30;35.00
61153;DHT22;47030;50.732;4.286;2022-08-21T07:31:03;40.20;34.70
61153;DHT22;47030;50.732;4.286;2022-08-21T07:33:31;40.90;33.40
61153;DHT22;47030;50.732;4.286;2022-08-21T07:35:58;40.60;33.50
61153;DHT22;47030;50.732;4.286;2022-08-21T07:38:24;39.40;34.20
61153;DHT22;47030;50.732;4.286;2022-08-21T07:40:52;38.80;34.20
61153;DHT22;47030;50.732;4.286;2022-08-21T07:43:19;39.20;34.60
61153;DHT22;47030;50.732;4.286;2022-08-21T07:45:47;39.00;33.90
61153;DHT22;47030;50.732;4.286;2022-08-21T07:48:13;39.10;34.10
61153;DHT22;47030;50.732;4.286;2022-08-21T07:50:39;39.30;33.40
61153;DHT22;47030;50.732;4.286;2022-08-21T07:53:06;39.30;34.00
61153;DHT22;47030;50.732;4.286;2022-08-21T07:55:32;39.60;33.80
61153;DHT22;47030;50.732;4.286;2022-08-21T07:57:58;39.70;33.30
61153;DHT22;47030;50.732;4.286;2022-08-21T08:00:26;39.50;33.50
61153;DHT22;47030;50.732;4.286;2022-08-21T08:02:53;39.00;33.90
61153;DHT22;47030;50.732;4.286;2022-08-21T08:05:22;39.00;34.00
61153;DHT22;47030;50.732;4.286;2022-08-21T08:07:48;38.50;34.60
61153;DHT22;47030;50.732;4.286;2022-08-21T08:10:14;38.10;34.50
61153;DHT22;47030;50.732;4.286;2022-08-21T08:12:42;37.20;35.70
61153;DHT22;47030;50.732;4.286;2022-08-21T08:15:10;36.80;36.10
61153;DHT22;47030;50.732;4.286;2022-08-21T08:17:36;36.50;37.00
61153;DHT22;47030;50.732;4.286;2022-08-21T08:20:08;36.10;36.70
61153;DHT22;47030;50.732;4.286;2022-08-21T08:22:35;35.50;37.50
61153;DHT22;47030;50.732;4.286;2022-08-21T08:25:01;35.00;38.50
61153;DHT22;47030;50.732;4.286;2022-08-21T08:27:27;35.00;38.50
61153;DHT22;47030;50.732;4.286;2022-08-21T08:29:53;35.50;37.30
61153;DHT22;47030;50.732;4.286;2022-08-21T08:32:19;36.00;37.10
61153;DHT22;47030;50.732;4.286;2022-08-21T08:34:45;36.40;36.80
61153;DHT22;47030;50.732;4.286;2022-08-21T08:37:12;36.90;36.50
61153;DHT22;47030;50.732;4.286;2022-08-21T08:39:38;37.40;35.80
61153;DHT22;47030;50.732;4.286;2022-08-21T08:42:18;37.80;35.60
61153;DHT22;47030;50.732;4.286;2022-08-21T08:44:48;37.30;35.00
61153;DHT22;47030;50.732;4.286;2022-08-21T08:47:17;36.70;36.40
61153;DHT22;47030;50.732;4.286;2022-08-21T08:52:34;37.80;35.70
61153;DHT22;47030;50.732;4.286;2022-08-21T08:57:32;38.70;34.00
61153;DHT22;47030;50.732;4.286;2022-08-21T09:00:00;37.80;34.40
61153;DHT22;47030;50.732;4.286;2022-08-21T09:02:26;37.90;34.90
61153;DHT22;47030;50.732;4.286;2022-08-21T09:04:55;38.80;34.10
61153;DHT22;47030;50.732;4.286;2022-08-21T09:10:18;41.70;31.40
61153;DHT22;47030;50.732;4.286;2022-08-21T09:12:50;41.70;31.10
61153;DHT22;47030;50.732;4.286;2022-08-21T09:18:15;42.50;30.00
61153;DHT22;47030;50.732;4.286;2022-08-21T09:21:09;41.90;30.10
61153;DHT22;47030;50.732;4.286;2022-08-21T09:23:50;42.50;30.00
61153;DHT22;47030;50.732;4.286;2022-08-21T09:26:27;42.70;30.60
61153;DHT22;47030;50.732;4.286;2022-08-21T09:28:58;42.40;30.50
61153;DHT22;47030;50.732;4.286;2022-08-21T09:31:29;42.10;31.00
61153;DHT22;47030;50.732;4.286;2022-08-21T09:34:05;40.50;31.60
61153;DHT22;47030;50.732;4.286;2022-08-21T09:36:44;40.00;31.90
61153;DHT22;47030;50.732;4.286;2022-08-21T09:39:13;39.30;32.20
61153;DHT22;47030;50.732;4.286;2022-08-21T09:41:56;38.00;33.40
61153;DHT22;47030;50.732;4.286;2022-08-21T09:44:28;37.40;34.00
61153;DHT22;47030;50.732;4.286;2022-08-21T09:46:55;38.50;33.30
61153;DHT22;47030;50.732;4.286;2022-08-21T09:49:32;40.20;31.20
61153;DHT22;47030;50.732;4.286;2022-08-21T09:52:03;40.20;31.50
61153;DHT22;47030;50.732;4.286;2022-08-21T09:54:36;39.10;32.00
61153;DHT22;47030;50.732;4.286;2022-08-21T09:57:18;37.30;33.70
61153;DHT22;47030;50.732;4.286;2022-08-21T10:00:26;36.70;35.20
61153;DHT22;47030;50.732;4.286;2022-08-21T10:02:52;38.30;33.00
61153;DHT22;47030;50.732;4.286;2022-08-21T10:05:25;38.70;32.40
61153;DHT22;47030;50.732;4.286;2022-08-21T10:07:51;40.40;31.50
61153;DHT22;47030;50.732;4.286;2022-08-21T10:10:28;41.30;30.30
61153;DHT22;47030;50.732;4.286;2022-08-21T10:15:51;40.30;30.40
61153;DHT22;47030;50.732;4.286;2022-08-21T10:18:21;38.60;31.90
61153;DHT22;47030;50.732;4.286;2022-08-21T10:21:15;38.20;33.00
61153;DHT22;47030;50.732;4.286;2022-08-21T10:23:54;39.10;31.90
61153;DHT22;47030;50.732;4.286;2022-08-21T10:26:42;40.30;31.40
61153;DHT22;47030;50.732;4.286;2022-08-21T10:29:25;40.70;31.00
61153;DHT22;47030;50.732;4.286;2022-08-21T10:34:51;40.30;30.40
61153;DHT22;47030;50.732;4.286;2022-08-21T10:37:47;39.60;31.80
61153;DHT22;47030;50.732;4.286;2022-08-21T10:40:42;39.20;31.60
61153;DHT22;47030;50.732;4.286;2022-08-21T10:43:40;38.10;33.20
61153;DHT22;47030;50.732;4.286;2022-08-21T10:48:59;39.40;32.20
61153;DHT22;47030;50.732;4.286;2022-08-21T10:51:46;38.80;32.60
61153;DHT22;47030;50.732;4.286;2022-08-21T10:57:05;36.00;35.50
61153;DHT22;47030;50.732;4.286;2022-08-21T10:59:47;34.80;36.60
61153;DHT22;47030;50.732;4.286;2022-08-21T11:04:57;33.30;38.70
61153;DHT22;47030;50.732;4.286;2022-08-21T11:07:38;32.80;39.60
61153;DHT22;47030;50.732;4.286;2022-08-21T11:10:13;32.00;41.30
61153;DHT22;47030;50.732;4.286;2022-08-21T11:12:51;31.70;40.80
61153;DHT22;47030;50.732;4.286;2022-08-21T11:18:10;31.80;41.50
61153;DHT22;47030;50.732;4.286;2022-08-21T11:20:43;31.40;42.50
61153;DHT22;47030;50.732;4.286;2022-08-21T11:23:25;31.30;42.10
61153;DHT22;47030;50.732;4.286;2022-08-21T11:26:13;30.50;42.80
61153;DHT22;47030;50.732;4.286;2022-08-21T11:28:48;29.90;44.30
61153;DHT22;47030;50.732;4.286;2022-08-21T11:37:16;29.60;45.40
61153;DHT22;47030;50.732;4.286;2022-08-21T11:40:17;30.40;43.40
61153;DHT22;47030;50.732;4.286;2022-08-21T11:42:50;31.70;41.80
61153;DHT22;47030;50.732;4.286;2022-08-21T11:51:22;35.30;36.00
61153;DHT22;47030;50.732;4.286;2022-08-21T11:56:51;35.90;36.40
61153;DHT22;47030;50.732;4.286;2022-08-21T11:59:48;36.50;35.50
61153;DHT22;47030;50.732;4.286;2022-08-21T12:02:19;36.50;34.90
61153;DHT22;47030;50.732;4.286;2022-08-21T12:04:50;36.30;35.20
61153;DHT22;47030;50.732;4.286;2022-08-21T12:07:32;36.00;35.20
61153;DHT22;47030;50.732;4.286;2022-08-21T12:10:00;36.30;35.60
61153;DHT22;47030;50.732;4.286;2022-08-21T12:12:34;35.50;35.30
61153;DHT22;47030;50.732;4.286;2022-08-21T12:15:06;35.50;36.20
61153;DHT22;47030;50.732;4.286;2022-08-21T12:17:39;34.80;35.40
61153;DHT22;47030;50.732;4.286;2022-08-21T12:20:22;34.60;35.90
61153;DHT22;47030;50.732;4.286;2022-08-21T12:23:23;34.20;37.80
61153;DHT22;47030;50.732;4.286;2022-08-21T12:28:39;34.00;37.90
61153;DHT22;47030;50.732;4.286;2022-08-21T12:31:26;33.80;38.10
61153;DHT22;47030;50.732;4.286;2022-08-21T12:33:58;33.60;38.00
61153;DHT22;47030;50.732;4.286;2022-08-21T12:36:40;33.40;37.70
61153;DHT22;47030;50.732;4.286;2022-08-21T12:39:14;32.80;38.40
61153;DHT22;47030;50.732;4.286;2022-08-21T12:41:50;32.00;39.30
61153;DHT22;47030;50.732;4.286;2022-08-21T12:44:38;31.00;41.50
61153;DHT22;47030;50.732;4.286;2022-08-21T12:47:18;30.30;43.00
61153;DHT22;47030;50.732;4.286;2022-08-21T12:50:08;30.00;45.00
61153;DHT22;47030;50.732;4.286;2022-08-21T12:53:00;29.70;44.70
61153;DHT22;47030;50.732;4.286;2022-08-21T12:55:31;29.90;44.50
61153;DHT22;47030;50.732;4.286;2022-08-21T12:57:57;29.80;43.30
61153;DHT22;47030;50.732;4.286;2022-08-21T13:00:29;29.50;43.90
61153;DHT22;47030;50.732;4.286;2022-08-21T13:02:56;29.40;43.70
61153;DHT22;47030;50.732;4.286;2022-08-21T13:05:34;29.20;44.90
61153;DHT22;47030;50.732;4.286;2022-08-21T13:08:04;29.10;44.30
61153;DHT22;47030;50.732;4.286;2022-08-21T13:10:32;28.90;45.20
61153;DHT22;47030;50.732;4.286;2022-08-21T13:13:01;28.60;45.30
61153;DHT22;47030;50.732;4.286;2022-08-21T13:15:34;28.40;45.80
61153;DHT22;47030;50.732;4.286;2022-08-21T13:18:04;28.40;45.20
61153;DHT22;47030;50.732;4.286;2022-08-21T13:20:36;28.40;46.40
61153;DHT22;47030;50.732;4.286;2022-08-21T13:23:07;28.30;46.80
61153;DHT22;47030;50.732;4.286;2022-08-21T13:25:37;28.20;46.40
61153;DHT22;47030;50.732;4.286;2022-08-21T13:28:11;28.10;47.80
61153;DHT22;47030;50.732;4.286;2022-08-21T13:30:46;28.10;47.20
61153;DHT22;47030;50.732;4.286;2022-08-21T13:33:14;28.00;47.80
61153;DHT22;47030;50.732;4.286;2022-08-21T13:38:17;27.90;47.90
61153;DHT22;47030;50.732;4.286;2022-08-21T13:41:01;28.10;48.50
61153;DHT22;47030;50.732;4.286;2022-08-21T13:43:35;28.10;48.20
61153;DHT22;47030;50.732;4.286;2022-08-21T13:46:06;28.20;48.50
61153;DHT22;47030;50.732;4.286;2022-08-21T13:48:34;28.30;48.40
61153;DHT22;47030;50.732;4.286;2022-08-21T13:51:01;28.60;47.00
61153;DHT22;47030;50.732;4.286;2022-08-21T13:53:30;28.60;47.30
61153;DHT22;47030;50.732;4.286;2022-08-21T13:55:58;28.50;46.10
61153;DHT22;47030;50.732;4.286;2022-08-21T13:58:29;28.60;46.00
61153;DHT22;47030;50.732;4.286;2022-08-21T14:00:57;28.10;46.90
61153;DHT22;47030;50.732;4.286;2022-08-21T14:03:37;28.10;47.60
61153;DHT22;47030;50.732;4.286;2022-08-21T14:06:12;28.40;47.80
61153;DHT22;47030;50.732;4.286;2022-08-21T14:08:40;28.40;46.50
61153;DHT22;47030;50.732;4.286;2022-08-21T14:11:12;28.40;47.20
61153;DHT22;47030;50.732;4.286;2022-08-21T14:14:21;28.30;48.10
61153;DHT22;47030;50.732;4.286;2022-08-21T14:16:59;28.50;48.40
61153;DHT22;47030;50.732;4.286;2022-08-21T14:19:55;28.40;47.80
61153;DHT22;47030;50.732;4.286;2022-08-21T14:24:48;28.60;47.10
61153;DHT22;47030;50.732;4.286;2022-08-21T14:27:17;28.60;46.80
61153;DHT22;47030;50.732;4.286;2022-08-21T14:29:43;28.80;46.90
61153;DHT22;47030;50.732;4.286;2022-08-21T14:32:20;29.00;46.20
61153;DHT22;47030;50.732;4.286;2022-08-21T14:34:47;29.10;46.20
61153;DHT22;47030;50.732;4.286;2022-08-21T14:37:13;29.20;46.10
61153;DHT22;47030;50.732;4.286;2022-08-21T14:39:39;29.30;45.80
61153;DHT22;47030;50.732;4.286;2022-08-21T14:42:05;29.40;45.40
61153;DHT22;47030;50.732;4.286;2022-08-21T14:44:30;29.20;45.40
61153;DHT22;47030;50.732;4.286;2022-08-21T14:46:58;29.20;45.50
61153;DHT22;47030;50.732;4.286;2022-08-21T14:49:26;29.00;45.00
61153;DHT22;47030;50.732;4.286;2022-08-21T14:51:53;28.80;45.60
61153;DHT22;47030;50.732;4.286;2022-08-21T14:54:26;28.80;46.20
61153;DHT22;47030;50.732;4.286;2022-08-21T14:56:52;28.80;46.20
61153;DHT22;47030;50.732;4.286;2022-08-21T14:59:17;28.70;46.90
61153;DHT22;47030;50.732;4.286;2022-08-21T15:01:46;28.80;46.20
61153;DHT22;47030;50.732;4.286;2022-08-21T15:04:12;28.80;45.90
61153;DHT22;47030;50.732;4.286;2022-08-21T15:06:37;28.80;46.30
61153;DHT22;47030;50.732;4.286;2022-08-21T15:09:03;28.70;45.70
61153;DHT22;47030;50.732;4.286;2022-08-21T15:11:32;28.60;45.50
61153;DHT22;47030;50.732;4.286;2022-08-21T15:14:01;28.50;45.60
61153;DHT22;47030;50.732;4.286;2022-08-21T15:16:28;28.50;46.10
61153;DHT22;47030;50.732;4.286;2022-08-21T15:18:55;28.40;46.50
61153;DHT22;47030;50.732;4.286;2022-08-21T15:21:21;28.30;47.80
61153;DHT22;47030;50.732;4.286;2022-08-21T15:23:47;28.20;47.20
61153;DHT22;47030;50.732;4.286;2022-08-21T15:26:13;28.10;48.10
61153;DHT22;47030;50.732;4.286;2022-08-21T15:28:39;28.20;47.60
61153;DHT22;47030;50.732;4.286;2022-08-21T15:31:05;28.10;46.80
61153;DHT22;47030;50.732;4.286;2022-08-21T15:33:31;28.00;46.80
61153;DHT22;47030;50.732;4.286;2022-08-21T15:35:57;28.00;46.90
61153;DHT22;47030;50.732;4.286;2022-08-21T15:38:23;27.90;47.90
61153;DHT22;47030;50.732;4.286;2022-08-21T15:40:49;27.70;48.10
61153;DHT22;47030;50.732;4.286;2022-08-21T15:43:23;27.60;48.00
61153;DHT22;47030;50.732;4.286;2022-08-21T15:45:50;27.50;48.30
61153;DHT22;47030;50.732;4.286;2022-08-21T15:48:16;27.50;47.80
61153;DHT22;47030;50.732;4.286;2022-08-21T15:50:42;27.40;48.40
61153;DHT22;47030;50.732;4.286;2022-08-21T15:53:07;27.30;47.80
61153;DHT22;47030;50.732;4.286;2022-08-21T15:55:34;27.20;47.80
61153;DHT22;47030;50.732;4.286;2022-08-21T15:58:00;27.20;48.60
61153;DHT22;47030;50.732;4.286;2022-08-21T16:00:26;27.20;49.60
61153;DHT22;47030;50.732;4.286;2022-08-21T16:02:55;27.10;49.40
61153;DHT22;47030;50.732;4.286;2022-08-21T16:05:22;27.10;50.00
61153;DHT22;47030;50.732;4.286;2022-08-21T16:07:49;27.20;48.20
61153;DHT22;47030;50.732;4.286;2022-08-21T16:10:17;27.10;48.20
61153;DHT22;47030;50.732;4.286;2022-08-21T16:12:49;27.00;48.70
61153;DHT22;47030;50.732;4.286;2022-08-21T16:15:16;27.00;48.70
61153;DHT22;47030;50.732;4.286;2022-08-21T16:17:44;26.90;48.30
61153;DHT22;47030;50.732;4.286;2022-08-21T16:20:17;26.90;48.90
61153;DHT22;47030;50.732;4.286;2022-08-21T16:22:44;26.90;50.10
61153;DHT22;47030;50.732;4.286;2022-08-21T16:25:10;26.90;48.50
61153;DHT22;47030;50.732;4.286;2022-08-21T16:27:37;26.90;49.30
61153;DHT22;47030;50.732;4.286;2022-08-21T16:30:04;26.90;48.20
61153;DHT22;47030;50.732;4.286;2022-08-21T16:32:30;26.90;48.10
61153;DHT22;47030;50.732;4.286;2022-08-21T16:34:56;26.70;48.40
61153;DHT22;47030;50.732;4.286;2022-08-21T16:37:22;26.60;48.80